createdAt,value
2019-03-04T00:01:06.057Z,98950.00
2019-03-04T00:03:54.944Z,98939.31
2019-03-04T00:06:34.827Z,98925.87
2019-03-04T00:09:23.666Z,98925.69
2019-03-04T00:12:12.507Z,98918.16
2019-03-04T00:15:01.309Z,98850.47
2019-03-04T00:17:50.161Z,98909.47
2019-03-04T00:20:38.999Z,98904.33
2019-03-04T00:23:27.812Z,98911.25
2019-03-04T00:26:16.707Z,98895.41
2019-03-04T00:29:05.644Z,98895.80
2019-03-04T00:31:54.516Z,98873.85
2019-03-04T00:34:43.362Z,98872.27
2019-03-04T00:37:32.183Z,98862.58
2019-03-04T00:40:21.078Z,98860.61
2019-03-04T00:43:09.947Z,98811.97
2019-03-04T00:45:58.781Z,98832.12
2019-03-04T00:48:47.605Z,98823.61
2019-03-04T00:51:36.454Z,98794.95
2019-03-04T00:54:25.342Z,98783.88
2019-03-04T00:57:14.137Z,98774.37
2019-03-04T01:03:10.675Z,98779.92
2019-03-04T01:05:52.435Z,98784.47
2019-03-04T01:08:41.252Z,98777.12
2019-03-04T01:11:30.173Z,98744.52
2019-03-04T01:14:18.986Z,98795.72
2019-03-04T01:17:07.898Z,98806.19
2019-03-04T01:19:56.709Z,98797.89
2019-03-04T01:22:46.024Z,98799.45
2019-03-04T01:25:34.830Z,98805.19
2019-03-04T01:28:23.668Z,98801.81
2019-03-04T01:31:12.541Z,98826.14
2019-03-04T01:34:01.361Z,98807.33
2019-03-04T01:36:50.185Z,98800.78
2019-03-04T01:39:39.017Z,98809.30
2019-03-04T01:42:27.869Z,98809.69
2019-03-04T01:48:45.539Z,98779.59
2019-03-04T01:51:34.363Z,98740.99
2019-03-04T01:54:23.228Z,98715.09
2019-03-04T01:57:12.041Z,98696.27
2019-03-04T02:00:00.878Z,98694.89
2019-03-04T02:02:49.781Z,98739.45
2019-03-04T02:05:31.603Z,98703.23
2019-03-04T02:08:20.450Z,98647.63
2019-03-04T02:11:09.247Z,98651.79
2019-03-04T02:13:58.070Z,98704.23
2019-03-04T02:16:46.910Z,98695.53
2019-03-04T02:19:35.707Z,98677.73
2019-03-04T02:22:24.623Z,98653.17
2019-03-04T02:25:34.334Z,98646.48
2019-03-04T02:28:23.187Z,98636.20
2019-03-04T02:31:11.993Z,98559.11
2019-03-04T02:34:00.817Z,98607.94
2019-03-04T02:36:49.662Z,98599.05
2019-03-04T02:39:38.489Z,98581.06
2019-03-04T02:42:27.321Z,98573.38
2019-03-04T02:45:37.062Z,98555.41
2019-03-04T02:48:25.962Z,98530.69
2019-03-04T02:51:14.862Z,98526.77
2019-03-04T02:54:03.665Z,98510.54
2019-03-04T02:56:52.491Z,98510.16
2019-03-04T02:59:41.317Z,98501.47
2019-03-04T03:02:30.233Z,98488.09
2019-03-04T03:05:19.131Z,98502.66
2019-03-04T03:08:00.456Z,98511.34
2019-03-04T03:10:49.268Z,98499.08
2019-03-04T03:13:38.113Z,98499.27
2019-03-04T03:16:26.960Z,98475.93
2019-03-04T03:19:15.758Z,98468.19
2019-03-04T03:22:04.737Z,98434.25
2019-03-04T03:24:53.584Z,98442.02
2019-03-04T03:27:42.429Z,98434.09
2019-03-04T03:30:31.232Z,98416.69
2019-03-04T03:33:20.088Z,98426.95
2019-03-04T03:36:08.903Z,98388.74
2019-03-04T03:38:57.764Z,98377.24
2019-03-04T03:41:46.556Z,98358.23
2019-03-04T03:44:35.411Z,98324.78
2019-03-04T03:47:24.218Z,98339.01
2019-03-04T03:53:28.780Z,98300.41
2019-03-04T03:56:17.637Z,98263.05
2019-03-04T03:59:06.540Z,98332.27
2019-03-04T04:01:55.421Z,98345.94
2019-03-04T04:04:36.806Z,98248.80
2019-03-04T04:07:25.654Z,98285.63
2019-03-04T04:10:35.369Z,98204.97
2019-03-04T04:13:24.213Z,98256.82
2019-03-04T04:16:13.048Z,98199.33
2019-03-04T04:19:01.926Z,98239.83
2019-03-04T04:21:50.829Z,98226.35
2019-03-04T04:24:39.631Z,98209.13
2019-03-04T04:27:28.590Z,98177.27
2019-03-04T04:33:37.558Z,98232.02
2019-03-04T04:36:26.344Z,98217.96
2019-03-04T04:39:15.188Z,98230.05
2019-03-04T04:42:04.063Z,98240.12
2019-03-04T04:44:52.962Z,98242.52
2019-03-04T04:48:01.106Z,98231.44
2019-03-04T04:50:49.946Z,98239.56
2019-03-04T04:53:38.803Z,98229.06
2019-03-04T04:56:27.609Z,98224.14
2019-03-04T04:59:16.467Z,98219.98
2019-03-04T05:02:05.419Z,98203.38
2019-03-04T05:04:47.356Z,98180.60
2019-03-04T05:07:36.209Z,98189.16
2019-03-04T05:10:25.328Z,98181.67
2019-03-04T05:13:14.179Z,98168.84
2019-03-04T05:16:03.033Z,98149.70
2019-03-04T05:18:51.871Z,98154.50
2019-03-04T05:21:40.711Z,98096.06
2019-03-04T05:24:29.762Z,98143.52
2019-03-04T05:27:18.636Z,98151.88
2019-03-04T05:30:28.371Z,98150.70
2019-03-04T05:33:17.197Z,98146.00
2019-03-04T05:36:06.008Z,98155.31
2019-03-04T05:38:54.836Z,98134.77
2019-03-04T05:41:43.624Z,98131.05
2019-03-04T05:44:32.475Z,98137.54
2019-03-04T05:47:21.299Z,98130.22
2019-03-04T05:50:31.043Z,98126.25
2019-03-04T05:53:19.893Z,98043.05
2019-03-04T05:56:08.715Z,98032.92
2019-03-04T05:58:57.525Z,98092.39
2019-03-04T06:02:07.281Z,98085.08
2019-03-04T06:04:49.069Z,98075.42
2019-03-04T06:10:47.371Z,98099.04
2019-03-04T06:13:36.215Z,98096.05
2019-03-04T06:16:25.047Z,98118.76
2019-03-04T06:19:13.865Z,98088.86
2019-03-04T06:22:02.707Z,98095.53
2019-03-04T06:24:51.513Z,98146.56
2019-03-04T06:27:40.408Z,98205.33
2019-03-04T06:30:49.384Z,98237.45
2019-03-04T06:33:39.146Z,98231.13
2019-03-04T06:36:27.969Z,98254.41
2019-03-04T06:39:16.860Z,98251.88
2019-03-04T06:42:05.709Z,98290.39
2019-03-04T06:44:54.504Z,98253.42
2019-03-04T06:47:43.438Z,98225.11
2019-03-04T06:50:52.165Z,98200.33
2019-03-04T06:54:19.713Z,98213.77
2019-03-04T06:57:29.463Z,98234.44
2019-03-04T07:00:39.222Z,98184.01
2019-03-04T07:03:28.059Z,98228.67
2019-03-04T07:06:09.463Z,98211.92
2019-03-04T07:08:53.151Z,98141.61
2019-03-04T07:11:41.958Z,98193.80
2019-03-04T07:14:30.889Z,98209.70
2019-03-04T07:17:19.732Z,98134.06
2019-03-04T07:20:27.873Z,98125.81
2019-03-04T07:23:16.711Z,98205.53
2019-03-04T07:26:05.532Z,98166.31
2019-03-04T07:28:54.437Z,98161.16
2019-03-04T07:31:43.366Z,98227.33
2019-03-04T07:34:33.868Z,98224.63
2019-03-04T07:37:22.860Z,98249.14
2019-03-04T07:40:30.991Z,98212.36
2019-03-04T07:43:19.902Z,98221.22
2019-03-04T07:46:08.763Z,98216.48
2019-03-04T07:48:57.568Z,98227.33
2019-03-04T07:51:46.392Z,98216.91
2019-03-04T07:54:35.234Z,98188.40
2019-03-04T07:57:24.063Z,98203.00
2019-03-04T08:00:13.234Z,98208.52
2019-03-04T08:03:02.086Z,98216.99
2019-03-04T08:05:44.228Z,98229.99
2019-03-04T08:08:44.558Z,98229.43
2019-03-04T08:11:54.306Z,98229.84
2019-03-04T08:14:43.113Z,98234.38
2019-03-04T08:17:31.942Z,98249.77
2019-03-04T08:20:13.688Z,98253.72
2019-03-04T08:23:02.577Z,98260.82
2019-03-04T08:25:51.510Z,98255.30
2019-03-04T08:28:59.627Z,98272.44
2019-03-04T08:31:48.648Z,98256.70
2019-03-04T08:34:37.545Z,98272.64
2019-03-04T08:37:26.396Z,98264.55
2019-03-04T08:43:31.652Z,98271.27
2019-03-04T08:46:20.570Z,98235.61
2019-03-04T08:49:09.505Z,98286.25
2019-03-04T08:51:58.361Z,98270.49
2019-03-04T08:54:47.245Z,98268.11
2019-03-04T08:57:36.074Z,98263.39
2019-03-04T09:00:45.845Z,98258.07
2019-03-04T09:03:34.773Z,98268.11
2019-03-04T09:06:16.235Z,98265.92
2019-03-04T09:09:25.955Z,98255.48
2019-03-04T09:12:14.990Z,98260.19
2019-03-04T09:18:32.790Z,98245.74
2019-03-04T09:21:21.646Z,98267.00
2019-03-04T09:24:10.443Z,98281.16
2019-03-04T09:26:59.278Z,98268.93
2019-03-04T09:29:40.908Z,98265.52
2019-03-04T09:32:29.709Z,98246.16
2019-03-04T09:35:18.925Z,98263.30
2019-03-04T09:38:07.857Z,98270.17
2019-03-04T09:40:56.697Z,98261.45
2019-03-04T09:43:45.651Z,98258.02
2019-03-04T09:46:34.461Z,98243.77
2019-03-04T09:49:23.321Z,98221.02
2019-03-04T09:52:12.236Z,98246.24
2019-03-04T09:55:01.097Z,98227.63
2019-03-04T09:57:50.022Z,98246.36
2019-03-04T10:00:59.762Z,98254.03
2019-03-04T10:04:09.533Z,98232.48
2019-03-04T10:07:19.449Z,98242.53
2019-03-04T10:10:29.347Z,98250.83
2019-03-04T10:16:29.909Z,98237.19
2019-03-04T10:19:39.608Z,98229.84
2019-03-04T10:22:49.443Z,98218.57
2019-03-04T10:25:59.200Z,98225.23
2019-03-04T10:29:08.912Z,98216.09
2019-03-04T10:32:18.740Z,98213.55
2019-03-04T10:35:28.514Z,98217.88
2019-03-04T10:38:56.058Z,98216.31
2019-03-04T10:42:05.858Z,98200.88
2019-03-04T10:45:33.369Z,98134.83
2019-03-04T10:48:22.242Z,98204.25
2019-03-04T10:51:11.081Z,98128.22
2019-03-04T10:54:00.134Z,98201.16
2019-03-04T10:59:58.500Z,98189.92
2019-03-04T11:02:47.371Z,98126.86
2019-03-04T11:05:36.216Z,98190.34
2019-03-04T11:08:25.047Z,98177.61
2019-03-04T11:11:14.025Z,98191.11
2019-03-04T11:14:02.925Z,98183.80
2019-03-04T11:16:51.835Z,98190.48
2019-03-04T11:19:40.699Z,98177.03
2019-03-04T11:22:22.277Z,98187.70
2019-03-04T11:25:11.256Z,98169.48
2019-03-04T11:27:53.145Z,98204.06
2019-03-04T11:30:42.083Z,98127.28
2019-03-04T11:33:31.087Z,98205.87
2019-03-04T11:36:20.092Z,98216.32
2019-03-04T11:39:47.261Z,98235.10
2019-03-04T11:42:36.273Z,98283.38
2019-03-04T11:45:25.157Z,98337.71
2019-03-04T11:48:14.013Z,98340.43
2019-03-04T11:51:02.930Z,98285.34
2019-03-04T11:53:51.775Z,98381.58
2019-03-04T11:56:40.652Z,98378.65
2019-03-04T11:59:29.581Z,98371.88
2019-03-04T12:01:59.180Z,98398.87
2019-03-04T12:04:48.114Z,98403.98
2019-03-04T12:07:37.051Z,98404.98
2019-03-04T12:10:25.935Z,98405.92
2019-03-04T12:13:14.868Z,98411.59
2019-03-04T12:16:03.875Z,98350.99
2019-03-04T12:18:52.801Z,98439.37
2019-03-04T12:21:23.264Z,98443.31
2019-03-04T12:23:52.846Z,98462.34
2019-03-04T12:26:22.432Z,98458.10
2019-03-04T12:28:52.490Z,98453.66
2019-03-04T12:31:23.412Z,98466.93
2019-03-04T12:33:52.955Z,98467.05
2019-03-04T12:36:22.538Z,98478.77
2019-03-04T12:38:52.099Z,98486.79
2019-03-04T12:41:21.742Z,98485.03
2019-03-04T12:43:51.264Z,98490.16
2019-03-04T12:46:20.739Z,98496.28
2019-03-04T12:48:50.213Z,98495.33
2019-03-04T12:51:23.268Z,98495.96
2019-03-04T12:53:50.973Z,98506.55
2019-03-04T12:56:20.447Z,98514.65
2019-03-04T12:58:50.073Z,98529.75
2019-03-04T13:01:19.722Z,98536.40
2019-03-04T13:03:51.228Z,98547.17
2019-03-04T13:06:20.786Z,98549.31
2019-03-04T13:08:50.344Z,98552.87
2019-03-04T13:11:39.210Z,98560.37
2019-03-04T13:14:27.679Z,98562.97
2019-03-04T13:17:16.615Z,98564.38
2019-03-04T13:20:26.325Z,98570.92
2019-03-04T13:23:15.557Z,98573.03
2019-03-04T13:26:04.490Z,98583.08
2019-03-04T13:28:53.426Z,98583.69
2019-03-04T13:31:42.367Z,98585.48
2019-03-04T13:34:31.263Z,98608.03
2019-03-04T13:37:20.160Z,98607.97
2019-03-04T13:40:29.938Z,98609.66
2019-03-04T13:43:18.845Z,98614.08
2019-03-04T13:46:07.762Z,98626.36
2019-03-04T13:48:56.704Z,98596.45
2019-03-04T13:54:41.280Z,98623.78
2019-03-04T13:57:30.118Z,98642.29
2019-03-04T14:00:39.892Z,98640.55
2019-03-04T14:03:28.802Z,98651.97
2019-03-04T14:06:17.678Z,98649.84
2019-03-04T14:09:06.650Z,98660.49
2019-03-04T14:11:55.638Z,98667.39
2019-03-04T14:14:37.107Z,98675.91
2019-03-04T14:17:26.101Z,98675.78
2019-03-04T14:20:15.038Z,98698.03
2019-03-04T14:23:03.917Z,98680.39
2019-03-04T14:25:52.860Z,98674.55
2019-03-04T14:28:41.859Z,98698.36
2019-03-04T14:31:11.412Z,98693.47
2019-03-04T14:33:40.892Z,98708.27
2019-03-04T14:36:10.646Z,98701.03
2019-03-04T14:38:40.215Z,98702.81
2019-03-04T14:41:09.907Z,98707.93
2019-03-04T14:43:39.441Z,98719.16
2019-03-04T14:46:11.133Z,98736.27
2019-03-04T14:48:40.750Z,98731.34
2019-03-04T14:51:10.373Z,98744.90
2019-03-04T14:53:39.873Z,98771.06
2019-03-04T14:56:09.351Z,98766.93
2019-03-04T14:58:38.877Z,98776.00
2019-03-04T15:01:11.404Z,98763.81
2019-03-04T15:03:40.953Z,98763.22
2019-03-04T15:06:10.480Z,98793.15
2019-03-04T15:08:39.983Z,98780.57
2019-03-04T15:11:09.533Z,98788.47
2019-03-04T15:13:39.111Z,98788.49
2019-03-04T15:16:08.679Z,98796.39
2019-03-04T15:18:38.195Z,98821.23
2019-03-04T15:21:08.389Z,98820.07
2019-03-04T15:23:37.972Z,98823.03
2019-03-04T15:26:07.599Z,98821.86
2019-03-04T15:28:37.186Z,98827.39
2019-03-04T15:31:06.877Z,98833.73
2019-03-04T15:33:36.450Z,98836.95
2019-03-04T15:36:06.058Z,98835.06
2019-03-04T15:38:35.616Z,98850.84
2019-03-04T15:41:05.229Z,98853.80
2019-03-04T15:43:34.832Z,98865.61
2019-03-04T15:46:04.608Z,98858.35
2019-03-04T15:48:34.187Z,98873.66
2019-03-04T15:51:04.001Z,98873.25
2019-03-04T15:53:33.487Z,98863.78
2019-03-04T15:56:03.040Z,98885.38
2019-03-04T15:58:33.276Z,98875.33
2019-03-04T16:01:03.172Z,98886.14
2019-03-04T16:03:32.948Z,98879.41
2019-03-04T16:06:02.636Z,98889.64
2019-03-04T16:08:32.285Z,98893.16
2019-03-04T16:11:01.799Z,98902.80
2019-03-04T16:13:31.520Z,98910.64
2019-03-04T16:16:01.126Z,98914.36
2019-03-04T16:18:30.574Z,98917.67
2019-03-04T16:21:00.174Z,98919.66
2019-03-04T16:23:29.778Z,98923.19
2019-03-04T16:26:02.580Z,98924.78
2019-03-04T16:28:32.175Z,98932.47
2019-03-04T16:31:01.648Z,98941.91
2019-03-04T16:33:31.116Z,98940.73
2019-03-04T16:36:00.679Z,98939.15
2019-03-04T16:38:30.307Z,98940.73
2019-03-04T16:40:59.908Z,98953.70
2019-03-04T16:43:29.375Z,98951.13
2019-03-04T16:45:58.882Z,98948.38
2019-03-04T16:48:28.482Z,98952.30
2019-03-04T16:50:58.121Z,98958.38
2019-03-04T16:53:35.489Z,98958.55
2019-03-04T16:56:05.123Z,98961.88
2019-03-04T16:58:36.144Z,98973.84
2019-03-04T17:01:05.871Z,98975.76
2019-03-04T17:03:35.390Z,98973.15
2019-03-04T17:06:05.040Z,98984.34
2019-03-04T17:08:34.620Z,98991.16
2019-03-04T17:11:04.137Z,99004.09
2019-03-04T17:13:33.608Z,98996.95
2019-03-04T17:16:03.794Z,99000.80
2019-03-04T17:18:33.336Z,99005.25
2019-03-04T17:21:02.945Z,99009.91
2019-03-04T17:23:32.514Z,99008.84
2019-03-04T17:26:02.002Z,99023.34
2019-03-04T17:28:31.594Z,99021.55
2019-03-04T17:31:01.287Z,99026.20
2019-03-04T17:33:30.874Z,99029.91
2019-03-04T17:36:00.391Z,99033.60
2019-03-04T17:38:30.051Z,99048.87
2019-03-04T17:40:59.653Z,99051.20
2019-03-04T17:43:29.301Z,99048.59
2019-03-04T17:45:58.962Z,99064.45
2019-03-04T17:48:28.750Z,99061.28
2019-03-04T17:50:58.272Z,99066.95
2019-03-04T17:53:27.807Z,99072.59
2019-03-04T17:55:57.413Z,99068.84
2019-03-04T17:58:27.152Z,99086.86
2019-03-04T18:00:57.540Z,99086.64
2019-03-04T18:03:27.137Z,99072.03
2019-03-04T18:05:56.751Z,99089.70
2019-03-04T18:08:26.283Z,99083.77
2019-03-04T18:10:55.869Z,99082.98
2019-03-04T18:13:25.570Z,99087.67
2019-03-04T18:15:55.249Z,99096.66
2019-03-04T18:18:24.942Z,99096.44
2019-03-04T18:20:54.781Z,99112.73
2019-03-04T18:23:24.458Z,99112.52
2019-03-04T18:26:10.535Z,99110.11
2019-03-04T18:29:11.905Z,99109.11
2019-03-04T18:31:58.265Z,99115.18
2019-03-04T18:34:56.721Z,99126.78
2019-03-04T18:37:50.125Z,99128.88
2019-03-04T18:40:50.067Z,99131.20
2019-03-04T18:43:52.766Z,99134.08
2019-03-04T18:46:57.041Z,99136.98
2019-03-04T18:49:26.541Z,99149.05
2019-03-04T18:51:56.032Z,99140.97
2019-03-04T18:54:25.562Z,99148.53
2019-03-04T18:56:55.207Z,99153.59
2019-03-04T18:59:24.858Z,99155.91
2019-03-04T19:01:54.438Z,99149.41
2019-03-04T19:04:24.024Z,99158.45
2019-03-04T19:06:53.646Z,99151.35
2019-03-04T19:09:23.276Z,99151.73
2019-03-04T19:11:52.887Z,99155.26
2019-03-04T19:14:22.558Z,99161.13
2019-03-04T19:16:52.225Z,99170.54
2019-03-04T19:19:21.769Z,99160.10
2019-03-04T19:21:53.363Z,99165.98
2019-03-04T19:24:22.927Z,99156.70
2019-03-04T19:26:52.428Z,99161.77
2019-03-04T19:29:22.099Z,99166.48
2019-03-04T19:31:51.716Z,99177.82
2019-03-04T19:34:21.334Z,99171.32
2019-03-04T19:36:50.911Z,99181.03
2019-03-04T19:39:20.566Z,99177.85
2019-03-04T19:41:50.146Z,99185.66
2019-03-04T19:44:19.609Z,99182.25
2019-03-04T19:46:49.388Z,99182.97
2019-03-04T19:49:18.919Z,99185.63
2019-03-04T19:51:48.562Z,99187.16
2019-03-04T19:54:18.184Z,99186.49
2019-03-04T19:56:49.380Z,99198.42
2019-03-04T19:59:18.884Z,99182.21
2019-03-04T20:01:48.455Z,99185.30
2019-03-04T20:04:18.102Z,99192.54
2019-03-04T20:06:47.694Z,99194.63
2019-03-04T20:09:17.207Z,99199.90
2019-03-04T20:15:36.597Z,99191.66
2019-03-04T20:18:18.608Z,99185.02
2019-03-04T20:21:07.770Z,99180.67
2019-03-04T20:23:56.781Z,99184.08
2019-03-04T20:26:45.678Z,99186.83
2019-03-04T20:29:34.535Z,99174.46
2019-03-04T20:32:23.342Z,99187.61
2019-03-04T20:35:33.104Z,99181.55
2019-03-04T20:38:42.865Z,99186.45
2019-03-04T20:41:31.828Z,99181.27
2019-03-04T20:44:20.682Z,99180.78
2019-03-04T20:47:09.636Z,99184.19
2019-03-04T20:49:59.547Z,99186.44
2019-03-04T20:52:48.752Z,99175.06
2019-03-04T20:55:37.642Z,99185.22
2019-03-04T20:58:26.551Z,99199.06
2019-03-04T21:04:11.130Z,99211.96
2019-03-04T21:07:00.021Z,99220.86
2019-03-04T21:09:49.040Z,99243.52
2019-03-04T21:12:28.881Z,99262.20
2019-03-04T21:15:38.652Z,99284.53
2019-03-04T21:18:27.795Z,99268.61
2019-03-04T21:21:16.591Z,99290.81
2019-03-04T21:24:05.617Z,99300.75
2019-03-04T21:26:54.432Z,99305.89
2019-03-04T21:30:04.219Z,99299.89
2019-03-04T21:32:53.220Z,99297.70
2019-03-04T21:36:20.929Z,99309.06
2019-03-04T21:43:01.021Z,99311.31
2019-03-04T21:46:28.583Z,99304.59
2019-03-04T21:49:17.539Z,99308.73
2019-03-04T21:52:27.281Z,99304.86
2019-03-04T21:55:37.009Z,99310.61
2019-03-04T21:58:25.937Z,99317.60
2019-03-04T22:01:35.789Z,99309.92
2019-03-04T22:04:36.497Z,99305.59
2019-03-04T22:07:16.121Z,99294.39
2019-03-04T22:10:25.839Z,99308.56
2019-03-04T22:13:07.497Z,99250.97
2019-03-04T22:15:56.370Z,99323.65
2019-03-04T22:18:45.220Z,99325.47
2019-03-04T22:21:34.015Z,99324.55
2019-03-04T22:24:22.931Z,99329.11
2019-03-04T22:27:11.715Z,99294.44
2019-03-04T22:30:00.523Z,99329.68
2019-03-04T22:32:49.419Z,99341.33
2019-03-04T22:35:38.316Z,99339.27
2019-03-04T22:38:27.242Z,99340.97
2019-03-04T22:41:16.061Z,99339.13
2019-03-04T22:44:04.934Z,99355.13
2019-03-04T22:46:53.798Z,99313.10
2019-03-04T22:49:42.637Z,99353.95
2019-03-04T22:52:31.535Z,99356.78
2019-03-04T22:55:41.228Z,99360.42
2019-03-04T22:58:30.129Z,99364.55
2019-03-04T23:04:34.946Z,99368.48
2019-03-04T23:07:23.774Z,99378.06
2019-03-04T23:13:22.017Z,99380.30
2019-03-04T23:19:25.920Z,99378.00
2019-03-04T23:22:14.719Z,99387.12
2019-03-04T23:28:18.544Z,99389.84
2019-03-04T23:31:07.417Z,99390.84
2019-03-04T23:33:56.253Z,99393.03
2019-03-04T23:36:45.151Z,99386.73
2019-03-04T23:39:33.998Z,99391.66
2019-03-04T23:42:22.808Z,99325.13
2019-03-04T23:48:27.785Z,99382.71
2019-03-04T23:51:16.627Z,99381.19
2019-03-04T23:54:05.561Z,99382.01
2019-03-04T23:56:54.349Z,99375.58
2019-03-04T23:59:43.212Z,99374.98
